This is the latest recevied weather packets stored in our database for station/object K4ZZR. If no packets are shown the sender has not sent any weather packets the latest 10 day(s).
| Time | Temp. | Humidity | Pressure | Rain* | Wind** | Luminosity | Snow |
|---|---|---|---|---|---|---|---|
| 1777822223 | 23.89° C | 87% | 1016.6 hPa | 0 mm | - | 195 W/m² | - |
| 1777821618 | 23.89° C | 87% | 1016.3 hPa | 0 mm | - | 186 W/m² | - |
| 1777819800 | 25° C | 84% | 1016.3 hPa | 0 mm | - | 413 W/m² | - |
| 1777816164 | 22.22° C | 92% | 1016.1 hPa | 0 mm | - | 62 W/m² | - |
| 1777814649 | 22.22° C | 94% | 1015.9 hPa | 0 mm | - | 37 W/m² | - |
| 1777813134 | 22.78° C | 91% | 1015.4 hPa | 0 mm | - | 33 W/m² | - |
| 1777811323 | 22.78° C | 91% | 1015 hPa | 0 mm | - | 53 W/m² | - |
| 1777809505 | 22.22° C | 93% | 1014.6 hPa | 0 mm | - | 50 W/m² | - |
| 1777808294 | 22.22° C | 95% | 1014.5 hPa | 0 mm | - | 52 W/m² | - |
| 1777805264 | 21.67° C | 95% | 1013.5 hPa | 0 mm | - | 2 W/m² | - |
| 1777804659 | 21.67° C | 95% | 1013.2 hPa | 0 mm | - | 2 W/m² | - |
| 1777804357 | 21.67° C | 95% | 1013 hPa | 0 mm | - | 1 W/m² | - |
| 1777804053 | 21.67° C | 94% | 1013.1 hPa | 0 mm | - | 0 W/m² | - |
| 1777803750 | 21.67° C | 94% | 1013.4 hPa | 0 mm | - | 0 W/m² | - |
| 1777803446 | 21.67° C | 94% | 1013.5 hPa | 0 mm | - | 0 W/m² | - |
| 1777803144 | 21.67° C | 94% | 1013.5 hPa | 0 mm | - | 0 W/m² | - |
| 1777802840 | 21.67° C | 94% | 1013.5 hPa | 0 mm | - | 0 W/m² | - |
| 1777802539 | 21.67° C | 94% | 1013.7 hPa | 0 mm | - | 0 W/m² | - |
| 1777802236 | 21.67° C | 94% | 1014 hPa | 0 mm | - | 0 W/m² | - |
| 1777801934 | 21.67° C | 94% | 1013.9 hPa | 0 mm | - | 0 W/m² | - |
| 1777801631 | 21.67° C | 94% | 1013.6 hPa | 0 mm | - | 0 W/m² | - |
| 1777801024 | 21.67° C | 93% | 1013.4 hPa | 0 mm | - | 0 W/m² | - |
| 1777800721 | 21.67° C | 93% | 1013.4 hPa | 0 mm | - | 0 W/m² | - |
| 1777800416 | 21.67° C | 93% | 1013.3 hPa | 0 mm | - | 0 W/m² | - |
| 1777800113 | 21.67° C | 93% | 1013.3 hPa | 0 mm | - | 0 W/m² | - |
* Rain latest hour (hover to see other rain measurements)
** Current wind speed in m/s (hover to see current wind gust speed)